Time;durP1;ratioP1;P1;durP2;ratioP2;P2;SDS_P1;SDS_P2;PMS_P1;PMS_P2;Temp;Humidity;BMP_temperature;BMP_pressure;BME280_temperature;BME280_humidity;BME280_pressure;Samples;Min_cycle;Max_cycle;Signal;HPM_P1;HPM_P2
2023/07/18 00:01:46;;;;;;;10.63;4.33;;;16.10;99.90;;;;;;5096158;28;20090;-73
2023/07/18 00:04:12;;;;;;;10.80;3.83;;;16.10;99.90;;;;;;5095779;28;20464;-72
2023/07/18 00:06:41;;;;;;;10.23;4.03;;;16.10;99.90;;;;;;5096014;28;20095;-72
2023/07/18 00:09:07;;;;;;;16.33;4.43;;;16.10;99.90;;;;;;5095817;28;20051;-73
2023/07/18 00:11:33;;;;;;;12.73;3.60;;;16.10;99.90;;;;;;5094757;28;20456;-73
2023/07/18 00:13:59;;;;;;;11.80;4.53;;;16.10;99.90;;;;;;5095823;28;20040;-73
2023/07/18 00:16:25;;;;;;;12.63;4.53;;;16.00;99.90;;;;;;5095587;28;20048;-72
2023/07/18 00:18:51;;;;;;;11.93;3.20;;;16.00;99.90;;;;;;5094612;28;20056;-73
2023/07/18 00:21:16;;;;;;;14.03;4.13;;;16.00;99.90;;;;;;5095533;28;20044;-72
2023/07/18 00:23:42;;;;;;;7.93;3.40;;;16.00;99.90;;;;;;5095728;28;20047;-72
2023/07/18 00:26:08;;;;;;;13.77;4.57;;;16.00;99.90;;;;;;5095440;28;20051;-73
2023/07/18 00:28:34;;;;;;;9.37;3.63;;;16.00;99.90;;;;;;5095623;28;20057;-72
2023/07/18 00:31:01;;;;;;;11.10;3.37;;;16.00;99.90;;;;;;5095458;28;20495;-72
2023/07/18 00:33:27;;;;;;;15.70;4.70;;;15.90;99.90;;;;;;5094927;28;20121;-72
2023/07/18 00:35:52;;;;;;;13.57;4.43;;;15.90;99.90;;;;;;5095266;28;20140;-72
2023/07/18 00:38:20;;;;;;;13.77;4.43;;;15.90;99.90;;;;;;5094975;28;20087;-73
2023/07/18 00:40:48;;;;;;;12.47;3.90;;;16.00;99.90;;;;;;5094196;28;20048;-72
2023/07/18 00:43:14;;;;;;;11.93;4.23;;;16.00;99.90;;;;;;5077177;28;20066;-73
2023/07/18 00:45:42;;;;;;;15.23;4.03;;;15.90;99.90;;;;;;5095643;28;20075;-73
2023/07/18 00:48:09;;;;;;;14.77;4.57;;;15.90;99.90;;;;;;5095348;28;20127;-73
2023/07/18 00:50:35;;;;;;;12.30;3.90;;;15.90;99.90;;;;;;5094198;28;20055;-73
2023/07/18 00:53:02;;;;;;;12.33;4.97;;;15.90;99.90;;;;;;5094007;28;20105;-73
2023/07/18 00:55:28;;;;;;;10.47;3.83;;;15.90;99.90;;;;;;5094829;28;20083;-73
2023/07/18 00:57:54;;;;;;;10.67;3.83;;;15.90;99.90;;;;;;5095135;28;20158;-73
2023/07/18 01:00:22;;;;;;;10.33;3.97;;;15.90;99.90;;;;;;5094707;28;20055;-73
2023/07/18 01:02:49;;;;;;;9.23;3.70;;;15.90;99.90;;;;;;5095123;28;20126;-73
2023/07/18 01:05:18;;;;;;;9.87;4.00;;;15.90;99.90;;;;;;5094873;28;20403;-73
2023/07/18 01:07:46;;;;;;;15.13;4.80;;;15.90;99.90;;;;;;5094872;28;20101;-73
2023/07/18 01:10:16;;;;;;;11.43;4.30;;;15.80;99.90;;;;;;5094359;28;20067;-73
2023/07/18 01:12:42;;;;;;;14.30;4.33;;;15.80;99.90;;;;;;5094554;28;20058;-73
2023/07/18 01:15:08;;;;;;;13.63;4.13;;;15.80;99.90;;;;;;5094649;28;20044;-73
2023/07/18 01:17:34;;;;;;;8.77;3.90;;;15.80;99.90;;;;;;5094299;28;20135;-73
2023/07/18 01:20:00;;;;;;;13.53;4.40;;;15.80;99.90;;;;;;5094294;28;20432;-73
2023/07/18 01:22:26;;;;;;;10.27;4.60;;;15.80;99.90;;;;;;5093957;28;20044;-73
2023/07/18 01:24:52;;;;;;;15.00;4.87;;;15.70;99.90;;;;;;5093274;28;20177;-73
2023/07/18 01:27:17;;;;;;;12.77;4.77;;;15.70;99.90;;;;;;5093070;28;20055;-73
2023/07/18 01:29:44;;;;;;;14.57;4.37;;;15.70;99.90;;;;;;5094275;28;20044;-73
2023/07/18 01:32:10;;;;;;;11.87;4.00;;;15.70;99.90;;;;;;5093764;28;20518;-73
2023/07/18 01:34:35;;;;;;;9.67;4.40;;;15.60;99.90;;;;;;5093860;28;20044;-73
2023/07/18 01:37:01;;;;;;;15.33;5.10;;;15.60;99.90;;;;;;5094057;28;20046;-73
2023/07/18 01:39:27;;;;;;;14.17;5.50;;;15.60;99.90;;;;;;5093583;28;20071;-73
2023/07/18 01:41:53;;;;;;;14.87;5.20;;;15.60;99.90;;;;;;5092238;28;20050;-73
2023/07/18 01:44:18;;;;;;;17.27;5.70;;;15.60;99.90;;;;;;5092753;28;20138;-73
2023/07/18 01:46:44;;;;;;;13.70;5.23;;;15.50;99.90;;;;;;5092833;28;20079;-73
2023/07/18 01:49:11;;;;;;;16.87;5.40;;;15.50;99.90;;;;;;5093821;28;20445;-72
2023/07/18 01:51:37;;;;;;;12.43;5.33;;;15.60;99.90;;;;;;5093611;28;20127;-73
2023/07/18 01:54:04;;;;;;;17.13;5.83;;;15.50;99.90;;;;;;5094027;28;20040;-73
2023/07/18 01:56:29;;;;;;;15.30;5.07;;;15.50;99.90;;;;;;5093563;28;20101;-73
2023/07/18 01:58:55;;;;;;;13.53;4.93;;;15.50;99.90;;;;;;5093655;28;20048;-73
2023/07/18 02:01:21;;;;;;;15.33;5.27;;;15.50;99.90;;;;;;5093322;28;20044;-73
2023/07/18 02:03:46;;;;;;;12.70;4.73;;;15.60;99.90;;;;;;5093553;28;20062;-73
2023/07/18 02:06:12;;;;;;;15.27;5.23;;;15.50;99.90;;;;;;5093901;28;20044;-73
2023/07/18 02:08:38;;;;;;;16.53;5.23;;;15.60;99.90;;;;;;5093422;28;20047;-73
2023/07/18 02:11:04;;;;;;;16.37;5.10;;;15.60;99.90;;;;;;5093634;28;20056;-73
2023/07/18 02:13:30;;;;;;;15.10;4.90;;;15.60;99.90;;;;;;5075300;28;20047;-73
2023/07/18 02:15:55;;;;;;;11.77;4.90;;;15.60;99.90;;;;;;5093515;28;20059;-73
2023/07/18 02:18:21;;;;;;;12.27;4.50;;;15.60;99.90;;;;;;5092789;28;20047;-73
2023/07/18 02:20:47;;;;;;;11.43;4.60;;;15.60;99.90;;;;;;5092348;28;20044;-73
2023/07/18 02:23:12;;;;;;;16.17;6.37;;;15.60;99.90;;;;;;5091848;28;20079;-73
2023/07/18 02:25:38;;;;;;;14.40;5.57;;;15.60;99.90;;;;;;5092152;28;20055;-73
2023/07/18 02:28:04;;;;;;;11.93;5.40;;;15.60;99.90;;;;;;5093499;28;20074;-73
2023/07/18 02:30:30;;;;;;;19.60;5.20;;;15.60;99.90;;;;;;5092153;28;20055;-73
2023/07/18 02:32:57;;;;;;;15.53;5.03;;;15.60;99.90;;;;;;5091836;28;20419;-73
2023/07/18 02:35:23;;;;;;;13.20;5.17;;;15.50;99.90;;;;;;5092974;28;20527;-73
2023/07/18 02:37:49;;;;;;;17.63;5.97;;;15.50;99.90;;;;;;5093160;28;20123;-73
2023/07/18 02:40:17;;;;;;;14.10;5.27;;;15.50;99.90;;;;;;5093114;28;20484;-73
2023/07/18 02:42:43;;;;;;;16.27;6.03;;;15.50;99.90;;;;;;5092830;28;20067;-73
2023/07/18 02:45:09;;;;;;;14.33;5.97;;;15.50;99.90;;;;;;5092158;28;20098;-72
2023/07/18 02:47:36;;;;;;;12.57;5.80;;;15.50;99.90;;;;;;5092771;28;20048;-73
2023/07/18 02:50:01;;;;;;;13.40;5.60;;;15.50;99.90;;;;;;5093056;28;20122;-73
2023/07/18 02:52:27;;;;;;;19.37;5.47;;;15.40;99.90;;;;;;5074796;28;20066;-73
2023/07/18 02:54:53;;;;;;;14.30;5.27;;;15.40;99.90;;;;;;5092199;28;20396;-73
2023/07/18 02:57:19;;;;;;;12.40;4.87;;;15.50;99.90;;;;;;5092991;28;20074;-73
2023/07/18 02:59:45;;;;;;;13.90;5.30;;;15.50;99.90;;;;;;5092701;28;20361;-73
2023/07/18 03:02:11;;;;;;;16.53;6.30;;;15.50;99.90;;;;;;5091920;28;20605;-73
2023/07/18 03:04:38;;;;;;;12.50;4.87;;;15.50;99.90;;;;;;5074526;28;20515;-73
2023/07/18 03:07:03;;;;;;;13.17;5.17;;;15.40;99.90;;;;;;5092205;28;20373;-73
2023/07/18 03:09:34;;;;;;;13.10;5.10;;;15.50;99.90;;;;;;5091618;28;20361;-73
2023/07/18 03:11:59;;;;;;;11.60;5.07;;;15.40;99.90;;;;;;5092988;28;20129;-73
2023/07/18 03:14:25;;;;;;;13.63;4.87;;;15.40;99.90;;;;;;5092396;28;20055;-73
2023/07/18 03:16:51;;;;;;;13.17;5.73;;;15.50;99.90;;;;;;5092690;28;20080;-73
2023/07/18 03:19:16;;;;;;;14.30;5.17;;;15.40;99.90;;;;;;5092709;28;20048;-73
2023/07/18 03:21:43;;;;;;;11.30;5.47;;;15.40;99.90;;;;;;5091079;28;20521;-73
2023/07/18 03:24:10;;;;;;;13.97;5.00;;;15.40;99.90;;;;;;5092605;28;20098;-73
2023/07/18 03:26:39;;;;;;;11.83;4.97;;;15.30;99.90;;;;;;5092247;28;20574;-73
2023/07/18 03:29:05;;;;;;;11.60;4.70;;;15.30;99.90;;;;;;5092578;28;20774;-73
2023/07/18 03:31:32;;;;;;;14.03;5.03;;;15.40;99.90;;;;;;5074746;28;20373;-73
2023/07/18 03:33:58;;;;;;;12.80;4.77;;;15.30;99.90;;;;;;5092790;28;20131;-73
2023/07/18 03:36:24;;;;;;;13.73;5.37;;;15.30;99.90;;;;;;5092283;28;20695;-73
2023/07/18 03:38:49;;;;;;;15.57;5.80;;;15.30;99.90;;;;;;5091202;28;20044;-73
2023/07/18 03:41:15;;;;;;;13.37;5.53;;;15.40;99.90;;;;;;5092597;28;20095;-73
2023/07/18 03:43:41;;;;;;;18.30;5.57;;;15.30;99.90;;;;;;5090887;28;20126;-73
2023/07/18 03:46:06;;;;;;;16.00;5.60;;;15.30;99.90;;;;;;5092602;28;20047;-73
2023/07/18 03:48:32;;;;;;;16.40;5.53;;;15.40;99.90;;;;;;5092237;28;20063;-73
2023/07/18 03:51:04;;;;;;;13.40;5.33;;;15.30;99.90;;;;;;5092679;28;20139;-73
2023/07/18 03:53:30;;;;;;;14.90;5.20;;;15.30;99.90;;;;;;5091883;28;20488;-73
2023/07/18 03:56:05;;;;;;;11.87;4.73;;;15.30;99.90;;;;;;5092460;28;20100;-73
2023/07/18 03:58:31;;;;;;;11.77;4.97;;;15.30;99.90;;;;;;5092300;28;20048;-73
2023/07/18 04:00:56;;;;;;;14.03;5.23;;;15.30;99.90;;;;;;5092425;28;20763;-73
2023/07/18 04:03:22;;;;;;;12.60;5.37;;;15.30;99.90;;;;;;5092570;28;20439;-73
2023/07/18 04:05:48;;;;;;;15.23;5.27;;;15.30;99.90;;;;;;5094569;28;20533;-73
2023/07/18 04:08:13;;;;;;;12.40;5.03;;;15.30;99.90;;;;;;5096260;28;20044;-73
2023/07/18 04:10:39;;;;;;;12.53;5.70;;;15.30;99.90;;;;;;5095738;28;20044;-73
2023/07/18 04:13:05;;;;;;;17.13;6.10;;;15.30;99.90;;;;;;5095114;28;20055;-73
2023/07/18 04:15:31;;;;;;;13.80;4.77;;;15.40;99.90;;;;;;5095710;28;20282;-73
2023/07/18 04:17:56;;;;;;;14.20;5.47;;;15.40;99.90;;;;;;5096187;28;20040;-73
2023/07/18 04:20:22;;;;;;;14.10;5.47;;;15.40;99.90;;;;;;5095792;28;20419;-73
2023/07/18 04:22:48;;;;;;;13.17;5.07;;;15.40;99.90;;;;;;5095582;28;20503;-73
2023/07/18 04:25:13;;;;;;;14.53;5.30;;;15.50;99.90;;;;;;5095743;28;20050;-73
2023/07/18 04:27:39;;;;;;;13.43;4.63;;;15.50;99.90;;;;;;5095367;28;20392;-73
2023/07/18 04:30:06;;;;;;;11.93;4.90;;;15.50;99.90;;;;;;5095078;28;20052;-73
2023/07/18 04:32:32;;;;;;;13.73;5.20;;;15.60;99.90;;;;;;5095524;28;20079;-73
2023/07/18 04:34:58;;;;;;;11.73;5.00;;;15.60;99.90;;;;;;5094381;28;20093;-73
2023/07/18 04:37:23;;;;;;;14.97;4.73;;;15.70;99.90;;;;;;5095483;28;20127;-73
2023/07/18 04:39:49;;;;;;;15.40;4.77;;;15.60;99.90;;;;;;5094995;28;20431;-73
2023/07/18 04:42:15;;;;;;;13.33;4.67;;;15.70;99.90;;;;;;5094432;28;20055;-73
2023/07/18 04:44:41;;;;;;;16.20;5.37;;;15.70;99.90;;;;;;5095104;28;20098;-73
2023/07/18 04:47:08;;;;;;;16.23;5.70;;;15.70;99.90;;;;;;5095388;28;20052;-73
2023/07/18 04:49:34;;;;;;;16.53;6.60;;;15.70;99.90;;;;;;5094200;28;20051;-73
2023/07/18 04:51:59;;;;;;;12.40;4.80;;;15.80;99.90;;;;;;5093684;28;20043;-73
2023/07/18 04:54:25;;;;;;;13.67;4.77;;;15.80;99.90;;;;;;5094974;28;20488;-73
2023/07/18 04:56:53;;;;;;;12.20;4.77;;;15.90;99.90;;;;;;5094927;28;20127;-73
2023/07/18 04:59:19;;;;;;;13.83;5.97;;;15.90;99.90;;;;;;5095062;28;20052;-73
2023/07/18 05:01:44;;;;;;;16.20;5.40;;;15.90;99.90;;;;;;5093442;28;20044;-73
2023/07/18 05:04:10;;;;;;;15.77;5.70;;;16.00;99.90;;;;;;5094868;28;20100;-73
2023/07/18 05:06:36;;;;;;;15.53;5.20;;;16.00;99.90;;;;;;5095009;28;20148;-73
2023/07/18 05:09:03;;;;;;;14.60;5.10;;;16.20;99.90;;;;;;5094816;28;20048;-73
2023/07/18 05:11:29;;;;;;;13.77;4.90;;;16.30;99.90;;;;;;5093646;28;20144;-73
2023/07/18 05:13:54;;;;;;;12.07;4.53;;;16.40;99.90;;;;;;5094404;28;20075;-73
2023/07/18 05:16:20;;;;;;;11.87;4.47;;;16.60;99.90;;;;;;5093837;28;20047;-73
2023/07/18 05:18:46;;;;;;;13.40;5.00;;;16.70;99.90;;;;;;5093102;28;20056;-73
2023/07/18 05:21:11;;;;;;;14.87;5.57;;;16.80;99.90;;;;;;5094792;28;20086;-73
2023/07/18 05:23:37;;;;;;;12.53;4.10;;;16.80;99.90;;;;;;5094473;28;20117;-73
2023/07/18 05:26:04;;;;;;;11.23;4.43;;;16.80;99.90;;;;;;5094279;28;20048;-73
2023/07/18 05:28:29;;;;;;;12.63;4.70;;;16.90;99.90;;;;;;5093492;28;20059;-74
2023/07/18 05:30:55;;;;;;;16.60;5.37;;;17.00;99.90;;;;;;5094180;28;20048;-74
2023/07/18 05:33:21;;;;;;;17.00;5.33;;;17.00;99.90;;;;;;5093216;28;20476;-74
2023/07/18 05:35:47;;;;;;;13.93;5.40;;;17.00;99.90;;;;;;5094134;28;20056;-74
2023/07/18 05:38:12;;;;;;;13.70;5.57;;;17.20;99.90;;;;;;5092856;28;20044;-74
2023/07/18 05:40:38;;;;;;;11.97;4.57;;;17.40;99.90;;;;;;5094214;28;20121;-74
2023/07/18 05:43:04;;;;;;;13.67;5.10;;;17.60;99.90;;;;;;5093927;28;20044;-74
2023/07/18 05:45:29;;;;;;;13.50;4.90;;;17.80;99.90;;;;;;5092960;28;20051;-74
2023/07/18 05:47:55;;;;;;;14.67;5.30;;;18.00;99.90;;;;;;5093825;28;20153;-74
2023/07/18 05:50:21;;;;;;;13.07;4.70;;;18.00;99.90;;;;;;5094220;28;20050;-74
2023/07/18 05:52:48;;;;;;;15.83;4.70;;;18.00;99.90;;;;;;5092466;28;20040;-74
2023/07/18 05:55:14;;;;;;;14.63;5.20;;;18.00;99.90;;;;;;5094166;28;20048;-74
2023/07/18 05:57:40;;;;;;;9.50;4.37;;;18.10;99.90;;;;;;5093956;28;20131;-74
2023/07/18 06:00:06;;;;;;;13.10;4.40;;;18.20;99.90;;;;;;5092373;28;20047;-74
2023/07/18 06:02:34;;;;;;;16.70;5.40;;;18.30;99.90;;;;;;5093899;28;20047;-74
2023/07/18 06:05:00;;;;;;;14.67;5.43;;;18.30;99.90;;;;;;5093602;28;20055;-74
2023/07/18 06:07:26;;;;;;;14.03;5.07;;;18.30;99.90;;;;;;5093760;28;20050;-74
2023/07/18 06:09:52;;;;;;;11.43;5.33;;;18.40;99.90;;;;;;5093481;28;20040;-74
2023/07/18 06:12:18;;;;;;;14.67;5.07;;;19.20;99.90;;;;;;5092931;28;20044;-72
2023/07/18 06:14:43;;;;;;;12.90;5.50;;;20.40;99.90;;;;;;5092555;28;20044;-72
2023/07/18 06:17:09;;;;;;;12.90;4.40;;;21.50;99.90;;;;;;5093238;28;20044;-72
2023/07/18 06:19:35;;;;;;;13.33;4.80;;;21.90;99.90;;;;;;5093543;28;20396;-72
2023/07/18 06:22:00;;;;;;;12.20;5.20;;;21.80;99.90;;;;;;5093247;28;20054;-72
2023/07/18 06:24:26;;;;;;;15.20;4.83;;;22.40;99.90;;;;;;5093595;28;20547;-72
2023/07/18 06:26:52;;;;;;;12.60;5.00;;;23.50;99.90;;;;;;5093190;28;20400;-71
2023/07/18 06:29:21;;;;;;;13.27;4.47;;;24.50;99.90;;;;;;5093391;28;20479;-72
2023/07/18 06:31:47;;;;;;;9.57;4.00;;;25.20;99.90;;;;;;5092313;28;20196;-72
2023/07/18 06:34:13;;;;;;;13.70;4.80;;;24.90;99.90;;;;;;5093223;28;20142;-72
2023/07/18 06:36:39;;;;;;;10.80;4.07;;;24.80;99.90;;;;;;5092023;28;20527;-72
2023/07/18 06:39:05;;;;;;;9.87;3.83;;;25.10;99.90;;;;;;5093009;28;20044;-72
2023/07/18 06:41:32;;;;;;;15.47;4.73;;;25.40;99.90;;;;;;5092679;28;20060;-72
2023/07/18 06:43:58;;;;;;;10.37;4.10;;;25.20;99.90;;;;;;5092851;28;20555;-73
2023/07/18 06:46:24;;;;;;;12.87;4.03;;;25.80;99.90;;;;;;5092850;28;20127;-72
2023/07/18 06:48:50;;;;;;;11.03;3.80;;;26.60;99.90;;;;;;5092903;28;20083;-75
2023/07/18 06:51:15;;;;;;;10.80;3.60;;;27.40;99.80;;;;;;5093073;28;20047;-73
2023/07/18 06:53:41;;;;;;;10.77;4.00;;;28.00;95.40;;;;;;5092940;28;20040;-73
2023/07/18 06:56:07;;;;;;;10.83;3.90;;;28.40;92.60;;;;;;5092669;28;20093;-73
2023/07/18 06:58:32;;;;;;;10.27;3.63;;;29.10;87.90;;;;;;5093204;28;20122;-73
2023/07/18 07:00:58;;;;;;;10.77;3.57;;;29.30;80.30;;;;;;5091517;28;20442;-73
2023/07/18 07:03:24;;;;;;;10.45;3.03;;;29.30;75.40;;;;;;5093192;28;20044;-73
2023/07/18 07:05:49;;;;;;;8.53;3.33;;;29.10;74.50;;;;;;5092873;28;20048;-73
2023/07/18 07:08:18;;;;;;;9.65;3.53;;;29.40;72.80;;;;;;5091223;28;20044;-74
2023/07/18 07:10:45;;;;;;;9.27;3.40;;;29.80;69.90;;;;;;5091955;28;20161;-72
2023/07/18 07:13:12;;;;;;;7.65;3.50;;;29.70;66.70;;;;;;5092048;28;20032;-74
2023/07/18 07:15:37;;;;;;;8.85;3.80;;;29.50;65.50;;;;;;5091374;28;20141;-74
2023/07/18 07:18:04;;;;;;;11.32;4.60;;;29.50;65.50;;;;;;5072305;28;20472;-74
2023/07/18 07:20:31;;;;;;;11.05;4.00;;;29.70;65.00;;;;;;5072567;28;20131;-73
2023/07/18 07:22:57;;;;;;;9.27;4.25;;;30.20;63.10;;;;;;5072296;28;20196;-74
2023/07/18 07:25:26;;;;;;;10.38;3.92;;;30.70;61.20;;;;;;5072715;28;20103;-76
2023/07/18 07:27:52;;;;;;;9.40;3.78;;;31.10;57.60;;;;;;5071404;28;20076;-77
2023/07/18 07:30:18;;;;;;;7.32;3.40;;;31.20;58.50;;;;;;5072243;28;20145;-77
2023/07/18 07:32:45;;;;;;;13.57;3.72;;;31.20;57.80;;;;;;5072436;28;20174;-76
2023/07/18 07:35:11;;;;;;;10.57;3.78;;;30.80;56.90;;;;;;5072181;28;20052;-76
2023/07/18 07:37:40;;;;;;;7.80;3.60;;;30.40;57.80;;;;;;5072519;28;20084;-77
2023/07/18 07:40:09;;;;;;;8.98;3.80;;;30.20;58.50;;;;;;5073334;28;20057;-77
2023/07/18 07:42:36;;;;;;;11.35;3.90;;;30.00;58.90;;;;;;5076234;28;20092;-77
2023/07/18 07:45:01;;;;;;;9.35;3.42;;;29.20;59.80;;;;;;5075911;28;20036;-77
2023/07/18 07:47:27;;;;;;;12.20;4.40;;;28.20;62.50;;;;;;5076507;28;20048;-78
2023/07/18 07:49:53;;;;;;;10.85;4.60;;;28.10;69.50;;;;;;5058199;28;20459;-77
2023/07/18 07:52:19;;;;;;;10.02;3.88;;;28.70;71.10;;;;;;5075751;28;20098;-77
2023/07/18 07:54:45;;;;;;;12.48;3.60;;;29.50;66.50;;;;;;5076107;28;20045;-77
2023/07/18 07:57:10;;;;;;;10.40;3.53;;;29.50;63.70;;;;;;5074828;28;20486;-78
2023/07/18 07:59:36;;;;;;;11.38;3.95;;;29.50;62.10;;;;;;5074914;28;20139;-77
2023/07/18 08:02:03;;;;;;;8.90;3.78;;;29.70;62.00;;;;;;5074682;28;20053;-78
2023/07/18 08:04:29;;;;;;;10.98;3.33;;;29.90;61.20;;;;;;5058154;28;20078;-75
2023/07/18 08:06:57;;;;;;;11.52;3.78;;;30.20;59.70;;;;;;5076088;28;20049;-77
2023/07/18 08:09:23;;;;;;;9.38;3.35;;;30.40;58.90;;;;;;5075541;28;20456;-77
2023/07/18 08:11:49;;;;;;;8.70;3.72;;;29.90;57.40;;;;;;5074717;28;20127;-77
2023/07/18 08:14:15;;;;;;;10.07;3.83;;;29.20;58.60;;;;;;5074113;28;20040;-78
2023/07/18 08:16:41;;;;;;;12.50;3.78;;;29.00;61.10;;;;;;5074632;28;20052;-77
2023/07/18 08:19:08;;;;;;;10.50;3.72;;;29.10;61.60;;;;;;5073818;28;20040;-77
2023/07/18 08:21:34;;;;;;;9.10;3.33;;;28.80;61.30;;;;;;5075502;28;20048;-76
2023/07/18 08:24:00;;;;;;;10.13;3.42;;;29.00;61.70;;;;;;5074359;28;20055;-76
2023/07/18 08:26:26;;;;;;;7.97;3.50;;;29.40;61.10;;;;;;5075556;28;20049;-75
2023/07/18 08:28:52;;;;;;;8.48;3.47;;;30.30;59.00;;;;;;5075454;28;20050;-76
2023/07/18 08:31:19;;;;;;;8.27;2.85;;;30.70;56.10;;;;;;5074241;28;20045;-78
2023/07/18 08:33:45;;;;;;;11.73;3.70;;;30.60;54.90;;;;;;5075272;28;20049;-77
2023/07/18 08:36:10;;;;;;;12.13;3.15;;;29.90;54.50;;;;;;5074857;28;20554;-75
2023/07/18 08:38:37;;;;;;;9.02;3.15;;;29.00;55.70;;;;;;5090675;28;20044;-76
2023/07/18 08:41:03;;;;;;;8.27;2.80;;;28.10;58.10;;;;;;5093794;28;20056;-77
2023/07/18 08:43:31;;;;;;;9.30;3.45;;;27.40;61.50;;;;;;5094960;28;20055;-77
2023/07/18 08:45:57;;;;;;;8.98;3.17;;;26.80;65.50;;;;;;5095088;28;20052;-77
2023/07/18 08:48:24;;;;;;;7.15;2.80;;;26.40;69.60;;;;;;5093868;28;20068;-78
2023/07/18 08:50:53;;;;;;;7.88;2.95;;;26.00;75.70;;;;;;5093525;28;20086;-76
2023/07/18 08:53:19;;;;;;;10.20;3.50;;;25.70;78.10;;;;;;5093998;28;20079;-74
2023/07/18 08:55:45;;;;;;;7.93;2.78;;;25.30;80.20;;;;;;5093584;28;20052;-76
2023/07/18 08:58:11;;;;;;;9.20;2.83;;;24.90;89.10;;;;;;5091677;28;20040;-76
2023/07/18 09:00:38;;;;;;;9.98;3.75;;;24.60;91.90;;;;;;5094677;28;20044;-76
2023/07/18 09:03:04;;;;;;;8.40;2.60;;;24.40;92.40;;;;;;5094574;28;20111;-77
2023/07/18 09:05:36;;;;;;;9.93;2.50;;;24.30;92.30;;;;;;5094181;28;20166;-75
2023/07/18 09:08:04;;;;;;;10.90;3.10;;;24.30;94.30;;;;;;5094561;28;20040;-75
2023/07/18 09:10:30;;;;;;;9.40;3.27;;;24.20;94.00;;;;;;5094114;28;20047;-74
2023/07/18 09:13:02;;;;;;;8.20;3.03;;;24.30;93.40;;;;;;5094114;28;20122;-76
2023/07/18 09:15:28;;;;;;;9.97;2.87;;;24.30;94.00;;;;;;5092890;28;20036;-76
2023/07/18 09:17:59;;;;;;;10.17;2.70;;;24.40;94.10;;;;;;5094316;28;20047;-75
2023/07/18 09:20:26;;;;;;;8.87;3.20;;;24.60;95.40;;;;;;5094016;28;20047;-72
2023/07/18 09:23:00;;;;;;;8.83;3.00;;;24.80;94.30;;;;;;5073860;28;20044;-79
2023/07/18 09:25:26;;;;;;;9.23;3.10;;;24.80;93.80;;;;;;5092663;28;20548;-75
2023/07/18 09:27:54;;;;;;;9.67;2.77;;;24.80;93.10;;;;;;5091212;28;20502;-76
2023/07/18 09:30:45;;;;;;;8.63;2.70;;;24.80;92.80;;;;;;5093832;28;20048;-73
2023/07/18 09:33:11;;;;;;;9.87;3.13;;;24.90;93.00;;;;;;5089540;28;20059;-75
2023/07/18 09:35:39;;;;;;;6.93;2.27;;;25.00;92.90;;;;;;5092660;28;20052;-75
2023/07/18 09:38:07;;;;;;;9.37;2.50;;;25.00;93.50;;;;;;5094200;28;20048;-77
2023/07/18 09:40:35;;;;;;;7.80;2.63;;;25.10;93.70;;;;;;5093649;28;20055;-77
2023/07/18 09:43:01;;;;;;;11.23;2.97;;;25.30;93.60;;;;;;5094175;28;20498;-68
2023/07/18 09:45:28;;;;;;;9.07;2.80;;;25.40;93.40;;;;;;5093823;28;20130;-69
2023/07/18 09:47:54;;;;;;;8.43;2.50;;;25.40;93.20;;;;;;5094123;28;20040;-70
2023/07/18 09:50:20;;;;;;;9.43;3.07;;;25.30;94.30;;;;;;5093737;28;20395;-71
2023/07/18 09:52:49;;;;;;;7.77;2.43;;;25.40;94.80;;;;;;5093867;28;20036;-69
2023/07/18 09:55:21;;;;;;;8.43;2.57;;;25.40;94.30;;;;;;5092277;28;20481;-70
2023/07/18 09:57:48;;;;;;;7.03;2.60;;;25.50;94.30;;;;;;5090970;28;20061;-69
2023/07/18 10:00:17;;;;;;;8.47;2.70;;;25.50;93.80;;;;;;5093111;28;20044;-70
2023/07/18 10:02:43;;;;;;;8.23;2.47;;;25.50;93.80;;;;;;5093269;28;20054;-70
2023/07/18 10:05:10;;;;;;;7.70;2.83;;;25.50;93.90;;;;;;5093669;28;20043;-67
2023/07/18 10:07:40;;;;;;;7.60;2.97;;;25.50;92.60;;;;;;5093351;28;20101;-77
2023/07/18 10:10:10;;;;;;;7.30;2.60;;;25.40;91.50;;;;;;5093643;28;20036;-71
2023/07/18 10:12:38;;;;;;;7.20;2.33;;;25.30;91.90;;;;;;5093169;28;20055;-76
2023/07/18 10:15:04;;;;;;;7.90;2.87;;;25.20;91.90;;;;;;5092846;28;20101;-77
2023/07/18 10:17:35;;;;;;;10.93;2.50;;;25.40;93.20;;;;;;5091459;28;20377;-76
2023/07/18 10:20:10;;;;;;;9.10;2.37;;;25.30;90.40;;;;;;5091590;28;20108;-76
2023/07/18 10:22:36;;;;;;;6.50;2.10;;;25.30;89.00;;;;;;5092957;28;20056;-76
2023/07/18 10:25:08;;;;;;;7.57;2.43;;;25.20;86.50;;;;;;5093278;28;20100;-76
2023/07/18 10:27:37;;;;;;;10.70;2.53;;;25.10;88.00;;;;;;5092284;28;20109;-76
2023/07/18 10:30:08;;;;;;;6.47;2.10;;;25.00;88.80;;;;;;5075768;28;20052;-76
2023/07/18 10:32:35;;;;;;;9.93;3.03;;;25.00;88.60;;;;;;5093149;28;20090;-76
2023/07/18 10:35:09;;;;;;;8.83;2.30;;;24.90;88.70;;;;;;5093587;28;20052;-75
2023/07/18 10:37:36;;;;;;;7.45;2.70;;;24.80;88.20;;;;;;5093272;28;20044;-75
2023/07/18 10:40:05;;;;;;;6.97;2.40;;;24.70;89.20;;;;;;5092885;28;20055;-76
2023/07/18 10:42:32;;;;;;;10.37;2.80;;;24.70;90.50;;;;;;5093035;28;20055;-76
2023/07/18 10:45:08;;;;;;;9.00;2.93;;;24.70;90.50;;;;;;5092342;28;20555;-76
2023/07/18 10:47:36;;;;;;;8.43;2.80;;;24.70;90.30;;;;;;5093060;28;20164;-76
2023/07/18 10:50:04;;;;;;;6.77;2.47;;;24.70;90.00;;;;;;5093156;28;20494;-76
2023/07/18 10:52:30;;;;;;;9.77;2.30;;;24.70;90.20;;;;;;5092843;28;20052;-76
2023/07/18 10:54:58;;;;;;;6.67;2.03;;;24.60;90.70;;;;;;5091851;28;20136;-76
2023/07/18 10:57:28;;;;;;;8.50;2.30;;;24.50;91.10;;;;;;5092884;28;20044;-76
2023/07/18 10:59:55;;;;;;;6.27;1.70;;;24.40;91.70;;;;;;5093274;28;20048;-76
2023/07/18 11:02:21;;;;;;;6.63;1.90;;;24.30;92.20;;;;;;5092917;28;20048;-76
2023/07/18 11:04:48;;;;;;;7.73;2.37;;;24.10;91.60;;;;;;5092957;28;20105;-76
2023/07/18 11:07:14;;;;;;;7.53;2.90;;;24.10;92.20;;;;;;5093030;28;20093;-77
2023/07/18 11:09:42;;;;;;;6.97;2.10;;;24.00;93.00;;;;;;5092630;28;20048;-76
2023/07/18 11:12:17;;;;;;;8.10;2.43;;;23.90;93.40;;;;;;5091646;28;20063;-76
2023/07/18 11:14:43;;;;;;;8.57;2.20;;;23.90;94.00;;;;;;5093490;28;20097;-76
2023/07/18 11:17:19;;;;;;;6.50;1.93;;;23.90;94.00;;;;;;5096146;28;20043;-77
2023/07/18 11:19:46;;;;;;;7.00;2.40;;;23.90;94.70;;;;;;5097011;28;20154;-76
2023/07/18 11:22:15;;;;;;;5.57;1.93;;;23.90;95.00;;;;;;5096988;28;20115;-76
2023/07/18 11:24:45;;;;;;;7.00;2.20;;;23.80;94.90;;;;;;5096505;28;20488;-76
2023/07/18 11:27:27;;;;;;;9.10;3.20;;;23.80;95.80;;;;;;5096842;28;20055;-76
2023/07/18 11:30:08;;;;;;;10.37;2.77;;;23.70;96.80;;;;;;5096978;28;20083;-76
2023/07/18 11:32:42;;;;;;;8.40;2.90;;;23.70;97.20;;;;;;5096978;28;20408;-76
2023/07/18 11:35:17;;;;;;;8.02;2.17;;;23.70;97.50;;;;;;5096984;28;20388;-76
2023/07/18 11:37:46;;;;;;;9.57;3.03;;;23.70;97.70;;;;;;5096561;28;20044;-76
2023/07/18 11:40:21;;;;;;;8.83;2.97;;;23.70;97.80;;;;;;5095499;28;20103;-76
2023/07/18 11:42:56;;;;;;;8.73;2.90;;;23.70;98.10;;;;;;5096506;28;20059;-76
2023/07/18 11:45:22;;;;;;;;;;;23.70;98.10;;;;;;5097245;28;20074;-76
2023/07/18 11:47:56;;;;;;;8.33;2.63;;;23.70;98.20;;;;;;5096331;28;20421;-76
2023/07/18 11:50:26;;;;;;;10.65;3.30;;;23.70;99.10;;;;;;5095597;28;20092;-76
2023/07/18 11:52:53;;;;;;;10.33;2.60;;;23.90;98.90;;;;;;5096320;28;20452;-76
2023/07/18 11:55:20;;;;;;;9.17;2.70;;;23.90;99.20;;;;;;5096379;28;20488;-76
2023/07/18 11:57:48;;;;;;;9.83;3.03;;;23.80;99.40;;;;;;5096198;28;20043;-76
2023/07/18 12:00:15;;;;;;;10.23;3.33;;;23.80;99.90;;;;;;5096401;28;20044;-76
2023/07/18 12:02:41;;;;;;;11.13;3.30;;;23.90;99.90;;;;;;5096076;28;20156;-76
2023/07/18 12:05:08;;;;;;;10.00;2.77;;;23.90;99.90;;;;;;5096238;28;20178;-76
2023/07/18 12:07:34;;;;;;;10.70;2.80;;;23.90;99.90;;;;;;5078062;28;20051;-76
2023/07/18 12:10:01;;;;;;;15.63;3.03;;;23.80;99.90;;;;;;5096091;28;20048;-76
2023/07/18 12:12:27;;;;;;;11.03;3.83;;;23.80;99.90;;;;;;5096182;28;20087;-77
2023/07/18 12:14:53;;;;;;;7.63;2.57;;;23.90;99.90;;;;;;5061034;28;20568;-76
2023/07/18 12:17:19;;;;;;;9.33;3.00;;;24.00;99.90;;;;;;5095960;28;20062;-76
2023/07/18 12:19:45;;;;;;;7.87;2.67;;;24.00;99.90;;;;;;5094785;28;20048;-76
2023/07/18 12:22:11;;;;;;;10.83;3.23;;;24.20;99.90;;;;;;5094679;28;20047;-77
2023/07/18 12:24:37;;;;;;;8.90;3.03;;;24.30;99.90;;;;;;5095679;28;20051;-77
2023/07/18 12:27:06;;;;;;;9.67;2.93;;;24.30;99.90;;;;;;5077705;28;20048;-77
2023/07/18 12:29:32;;;;;;;11.83;3.30;;;24.40;99.10;;;;;;5095671;28;20052;-77
2023/07/18 12:31:58;;;;;;;8.27;3.10;;;24.40;99.20;;;;;;5094953;28;20498;-77
2023/07/18 12:34:24;;;;;;;11.13;3.33;;;24.40;98.90;;;;;;5095286;28;20361;-77
2023/07/18 12:36:50;;;;;;;8.93;2.37;;;24.40;98.60;;;;;;5095424;28;20055;-76
2023/07/18 12:39:17;;;;;;;9.03;2.20;;;24.40;98.50;;;;;;5095674;28;20051;-77